Time;durP1;ratioP1;P1;durP2;ratioP2;P2;SDS_P1;SDS_P2;PMS_P1;PMS_P2;Temp;Humidity;BMP_temperature;BMP_pressure;BME280_temperature;BME280_humidity;BME280_pressure;Samples;Min_cycle;Max_cycle;Signal;HPM_P1;HPM_P2
2023/02/22 00:00:55;;;;;;;47.13;23.00;;;8.50;99.90;;;;;;5082270;28;20143;-66
2023/02/22 00:03:31;;;;;;;39.15;21.35;;;8.50;99.90;;;;;;5080381;28;20120;-67
2023/02/22 00:06:03;;;;;;;44.08;22.05;;;8.50;99.90;;;;;;5064917;28;20039;-66
2023/02/22 00:08:34;;;;;;;41.03;21.50;;;8.50;99.90;;;;;;5069418;28;20071;-66
2023/02/22 00:11:03;;;;;;;44.28;21.13;;;8.50;99.90;;;;;;5083131;28;20048;-66
2023/02/22 00:13:29;;;;;;;38.55;20.20;;;8.50;99.90;;;;;;5080101;28;20040;-66
2023/02/22 00:15:56;;;;;;;38.55;20.42;;;8.40;99.90;;;;;;5061982;28;20101;-66
2023/02/22 00:18:23;;;;;;;39.33;20.42;;;8.40;99.90;;;;;;5066474;28;20036;-66
2023/02/22 00:20:49;;;;;;;34.72;19.92;;;8.40;99.90;;;;;;5068354;28;20067;-66
2023/02/22 00:23:20;;;;;;;42.17;20.63;;;8.40;99.90;;;;;;5086817;28;20468;-66
2023/02/22 00:25:48;;;;;;;36.72;19.48;;;8.40;99.90;;;;;;5083073;28;20043;-66
2023/02/22 00:28:15;;;;;;;38.10;21.48;;;8.40;99.90;;;;;;5066122;28;20040;-66
2023/02/22 00:30:44;;;;;;;36.75;20.50;;;8.40;99.90;;;;;;5085579;28;20151;-66
2023/02/22 00:33:14;;;;;;;37.10;20.58;;;8.40;99.90;;;;;;5067053;28;20039;-67
2023/02/22 00:35:44;;;;;;;39.88;20.55;;;8.40;99.90;;;;;;5064246;28;20097;-66
2023/02/22 00:38:11;;;;;;;39.05;21.73;;;8.40;99.90;;;;;;5068411;28;20040;-66
2023/02/22 00:40:37;;;;;;;42.08;20.67;;;8.40;99.90;;;;;;5082933;28;20055;-66
2023/02/22 00:43:04;;;;;;;38.38;21.48;;;8.30;99.90;;;;;;5069941;28;20097;-64
2023/02/22 00:45:31;;;;;;;38.78;22.40;;;8.30;99.90;;;;;;5062310;28;20051;-65
2023/02/22 00:47:58;;;;;;;41.30;21.70;;;8.40;99.90;;;;;;5088911;28;20028;-66
2023/02/22 00:50:26;;;;;;;49.70;21.90;;;8.30;99.90;;;;;;5086811;28;20047;-66
2023/02/22 00:52:55;;;;;;;39.50;20.98;;;8.30;99.90;;;;;;5077412;28;20033;-66
2023/02/22 00:55:30;;;;;;;42.40;22.50;;;8.30;99.90;;;;;;5084843;28;20048;-66
2023/02/22 00:57:56;;;;;;;41.55;20.88;;;8.30;99.90;;;;;;5069709;28;20090;-66
2023/02/22 01:00:32;;;;;;;40.95;21.73;;;8.30;99.90;;;;;;5084388;28;20044;-67
2023/02/22 01:02:58;;;;;;;40.08;20.85;;;8.30;99.90;;;;;;5067374;28;20044;-66
2023/02/22 01:05:27;;;;;;;32.13;19.55;;;8.30;99.90;;;;;;5083224;28;20073;-65
2023/02/22 01:07:54;;;;;;;38.53;21.45;;;8.30;99.90;;;;;;5068296;28;20104;-65
2023/02/22 01:10:22;;;;;;;37.35;21.17;;;8.30;99.90;;;;;;5068903;28;20052;-65
2023/02/22 01:12:48;;;;;;;35.45;20.60;;;8.30;99.90;;;;;;5070669;28;20040;-66
2023/02/22 01:15:20;;;;;;;37.70;21.70;;;8.30;99.90;;;;;;5067882;28;20098;-66
2023/02/22 01:17:47;;;;;;;41.00;21.42;;;8.30;99.90;;;;;;5087859;28;20043;-66
2023/02/22 01:20:13;;;;;;;38.63;20.77;;;8.30;99.90;;;;;;5086295;28;20261;-66
2023/02/22 01:22:41;;;;;;;35.17;19.88;;;8.30;99.90;;;;;;5080656;28;20480;-65
2023/02/22 01:25:10;;;;;;;40.50;21.05;;;8.30;99.90;;;;;;5068836;28;20036;-65
2023/02/22 01:27:37;;;;;;;37.63;21.77;;;8.30;99.90;;;;;;5069375;28;20526;-66
2023/02/22 01:30:07;;;;;;;34.70;20.30;;;8.30;99.90;;;;;;5082611;28;20158;-66
2023/02/22 01:32:38;;;;;;;33.75;20.98;;;8.30;99.90;;;;;;5060685;28;20119;-66
2023/02/22 01:35:07;;;;;;;36.58;21.20;;;8.30;99.90;;;;;;5071322;28;20032;-67
2023/02/22 01:37:34;;;;;;;37.63;21.95;;;8.30;99.90;;;;;;5087765;28;20040;-67
2023/02/22 01:40:01;;;;;;;39.70;21.70;;;8.30;99.90;;;;;;5067921;28;20417;-68
2023/02/22 01:42:28;;;;;;;38.42;23.17;;;8.30;99.90;;;;;;5072143;28;20461;-68
2023/02/22 01:45:34;;;;;;;41.05;22.20;;;8.30;99.90;;;;;;5084988;28;20111;-68
2023/02/22 01:48:18;;;;;;;42.53;23.52;;;8.30;99.90;;;;;;5073532;28;20042;-68
2023/02/22 01:50:52;;;;;;;38.83;24.70;;;8.20;99.90;;;;;;5073459;28;20137;-68
2023/02/22 01:53:23;;;;;;;41.17;24.05;;;8.20;99.90;;;;;;5063923;28;20036;-68
2023/02/22 01:55:50;;;;;;;37.95;22.27;;;8.20;99.90;;;;;;5087933;28;20042;-68
2023/02/22 01:58:17;;;;;;;41.83;24.02;;;8.20;99.90;;;;;;5083329;28;20101;-70
2023/02/22 02:00:43;;;;;;;40.55;23.33;;;8.20;99.90;;;;;;5084195;28;20422;-68
2023/02/22 02:03:18;;;;;;;42.13;24.00;;;8.20;99.90;;;;;;5084561;28;20032;-68
2023/02/22 02:05:44;;;;;;;;;;;8.20;99.90;;;;;;5087587;28;20044;-68
2023/02/22 02:08:38;;;;;;;37.53;22.73;;;8.20;99.90;;;;;;5088655;28;19920;-68
2023/02/22 02:11:07;;;;;;;39.78;23.15;;;8.20;99.90;;;;;;5070397;28;20043;-68
2023/02/22 02:13:33;;;;;;;38.85;22.95;;;8.20;99.90;;;;;;5086420;28;20035;-68
2023/02/22 02:15:59;;;;;;;44.40;24.60;;;8.20;99.90;;;;;;5068662;28;20048;-68
2023/02/22 02:18:27;;;;;;;39.22;23.92;;;8.20;99.90;;;;;;5083769;28;20043;-68
2023/02/22 02:21:27;;;;;;;38.67;23.65;;;8.20;99.90;;;;;;5071918;28;20044;-68
2023/02/22 02:24:27;;;;;;;43.55;23.80;;;8.20;99.90;;;;;;5087573;28;20143;-68
2023/02/22 02:27:05;;;;;;;38.00;22.48;;;8.20;99.90;;;;;;5085984;28;20134;-68
2023/02/22 02:29:33;;;;;;;38.03;22.85;;;8.20;99.90;;;;;;5072842;28;20055;-68
2023/02/22 02:32:14;;;;;;;40.13;23.42;;;8.20;99.90;;;;;;5067936;28;20056;-68
2023/02/22 02:34:55;;;;;;;39.72;22.13;;;8.20;99.90;;;;;;5085250;28;20032;-68
2023/02/22 02:37:26;;;;;;;41.05;24.35;;;8.20;99.90;;;;;;5060949;28;20101;-68
2023/02/22 02:39:59;;;;;;;38.85;22.00;;;8.10;99.90;;;;;;5072226;28;20099;-68
2023/02/22 02:42:33;;;;;;;39.92;24.00;;;8.20;99.90;;;;;;5072292;28;20048;-68
2023/02/22 02:45:04;;;;;;;;;;;8.10;99.90;;;;;;5068378;28;20457;-65
2023/02/22 02:47:36;;;;;;;37.95;22.40;;;8.10;99.90;;;;;;5071175;28;19977;-66
2023/02/22 02:50:17;;;;;;;38.90;23.00;;;8.10;99.90;;;;;;5078100;28;20098;-65
2023/02/22 02:52:45;;;;;;;35.33;21.80;;;8.10;99.90;;;;;;5064819;28;20032;-66
2023/02/22 02:55:12;;;;;;;37.25;22.33;;;8.10;99.90;;;;;;5063685;28;20044;-65
2023/02/22 02:57:37;;;;;;;40.00;22.70;;;8.10;99.90;;;;;;5081602;28;20472;-66
2023/02/22 03:00:21;;;;;;;36.83;22.35;;;8.10;99.90;;;;;;5066969;28;20121;-65
2023/02/22 03:03:19;;;;;;;35.58;21.80;;;8.10;99.90;;;;;;5082013;28;20040;-66
2023/02/22 03:06:10;;;;;;;38.65;22.58;;;8.10;99.90;;;;;;5068139;28;20381;-65
2023/02/22 03:09:05;;;;;;;37.42;21.58;;;8.10;99.90;;;;;;5081420;28;20040;-65
2023/02/22 03:11:40;;;;;;;38.08;22.92;;;8.10;99.90;;;;;;5070637;28;20055;-67
2023/02/22 03:14:33;;;;;;;38.35;22.83;;;8.00;99.90;;;;;;5050839;28;20201;-66
2023/02/22 03:17:11;;;;;;;39.60;22.38;;;8.10;99.90;;;;;;5072446;28;20047;-66
2023/02/22 03:19:44;;;;;;;36.42;22.25;;;8.10;99.90;;;;;;5082619;28;20040;-66
2023/02/22 03:22:25;;;;;;;37.42;21.88;;;8.00;99.90;;;;;;5065774;28;20044;-66
2023/02/22 03:25:07;;;;;;;37.47;22.75;;;8.00;99.90;;;;;;5063771;28;20040;-65
2023/02/22 03:27:49;;;;;;;38.38;23.02;;;8.00;99.90;;;;;;5079888;28;20067;-65
2023/02/22 03:30:22;;;;;;;41.28;23.75;;;8.00;99.90;;;;;;5070262;28;20060;-66
2023/02/22 03:32:53;;;;;;;40.92;23.23;;;8.00;99.90;;;;;;5088204;28;20032;-66
2023/02/22 03:35:22;;;;;;;38.47;23.10;;;8.00;99.90;;;;;;5070885;28;20534;-66
2023/02/22 03:37:54;;;;;;;37.30;22.38;;;8.00;99.90;;;;;;5067022;28;20113;-66
2023/02/22 03:40:45;;;;;;;37.65;22.45;;;7.90;99.90;;;;;;5063409;28;20495;-66
2023/02/22 03:43:21;;;;;;;42.08;23.55;;;7.90;99.90;;;;;;5072294;28;20110;-66
2023/02/22 03:45:49;;;;;;;39.58;22.23;;;7.90;99.90;;;;;;5063639;28;20042;-66
2023/02/22 03:48:35;;;;;;;40.55;22.45;;;7.90;99.90;;;;;;5076070;28;20108;-65
2023/02/22 03:51:03;;;;;;;39.83;23.67;;;7.90;99.90;;;;;;5081590;28;20048;-66
2023/02/22 03:53:33;;;;;;;43.97;24.25;;;8.00;99.90;;;;;;5071245;28;20116;-67
2023/02/22 03:56:01;;;;;;;42.58;23.70;;;7.90;99.90;;;;;;5069475;28;20100;-66
2023/02/22 03:58:30;;;;;;;42.47;24.50;;;7.90;99.90;;;;;;5082054;28;20066;-66
2023/02/22 04:00:56;;;;;;;46.40;26.25;;;7.90;99.90;;;;;;5066721;28;20035;-66
2023/02/22 04:03:22;;;;;;;45.50;26.85;;;7.90;99.90;;;;;;5061273;28;20109;-67
2023/02/22 04:05:48;;;;;;;41.30;25.65;;;7.90;99.90;;;;;;5068528;28;20039;-65
2023/02/22 04:08:15;;;;;;;49.50;27.92;;;7.90;99.90;;;;;;5083243;28;20083;-66
2023/02/22 04:10:41;;;;;;;46.03;27.13;;;7.90;99.90;;;;;;5071134;28;20044;-65
2023/02/22 04:13:08;;;;;;;51.63;28.90;;;7.90;99.90;;;;;;5070686;28;20105;-65
2023/02/22 04:15:33;;;;;;;46.67;29.55;;;7.90;99.90;;;;;;5051799;28;20130;-66
2023/02/22 04:17:59;;;;;;;50.60;30.85;;;7.80;99.90;;;;;;5081003;28;20123;-67
2023/02/22 04:20:25;;;;;;;50.70;31.45;;;7.80;99.90;;;;;;5064379;28;20079;-67
2023/02/22 04:22:52;;;;;;;53.00;31.75;;;7.80;99.90;;;;;;5066218;28;20040;-67
2023/02/22 04:25:19;;;;;;;58.45;34.25;;;7.80;99.90;;;;;;5072956;28;20036;-67
2023/02/22 04:27:45;;;;;;;56.83;34.42;;;7.80;99.90;;;;;;5069499;28;20044;-66
2023/02/22 04:30:11;;;;;;;62.25;38.47;;;7.80;99.90;;;;;;5083227;28;20032;-67
2023/02/22 04:32:38;;;;;;;59.60;34.88;;;7.80;99.90;;;;;;5064732;28;20055;-66
2023/02/22 04:35:05;;;;;;;59.92;36.15;;;7.80;99.90;;;;;;5069394;28;20052;-66
2023/02/22 04:37:33;;;;;;;63.83;38.08;;;7.80;99.90;;;;;;5064954;28;20500;-66
2023/02/22 04:40:00;;;;;;;65.30;39.03;;;7.70;99.90;;;;;;5064979;28;20519;-66
2023/02/22 04:42:26;;;;;;;63.22;36.97;;;7.70;99.90;;;;;;5068553;28;20155;-66
2023/02/22 04:44:52;;;;;;;62.28;37.60;;;7.70;99.90;;;;;;5081189;28;20040;-66
2023/02/22 04:47:18;;;;;;;63.78;36.05;;;7.70;99.90;;;;;;5085981;28;20040;-66
2023/02/22 04:49:44;;;;;;;64.63;38.28;;;7.70;99.90;;;;;;5077386;28;20533;-67
2023/02/22 04:52:10;;;;;;;61.58;38.17;;;7.70;99.90;;;;;;5083086;28;20056;-66
2023/02/22 04:54:36;;;;;;;64.32;38.65;;;7.70;99.90;;;;;;5084011;28;20040;-66
2023/02/22 04:57:02;;;;;;;69.30;39.58;;;7.70;99.90;;;;;;5066809;28;20044;-66
2023/02/22 04:59:28;;;;;;;68.47;39.75;;;7.70;99.90;;;;;;5065303;28;20123;-66
2023/02/22 05:01:54;;;;;;;67.55;38.42;;;7.70;99.90;;;;;;5065941;28;20040;-67
2023/02/22 05:04:20;;;;;;;69.13;40.35;;;7.80;99.90;;;;;;5087102;28;20036;-66
2023/02/22 05:06:46;;;;;;;74.82;40.60;;;7.80;99.90;;;;;;5076745;28;20535;-66
2023/02/22 05:09:13;;;;;;;73.40;42.95;;;7.80;99.90;;;;;;5075476;28;20115;-66
2023/02/22 05:11:39;;;;;;;76.30;43.35;;;7.70;99.90;;;;;;5076421;28;20094;-67
2023/02/22 05:14:04;;;;;;;79.65;44.53;;;7.80;99.90;;;;;;5074847;28;20517;-67
2023/02/22 05:16:30;;;;;;;77.78;45.42;;;7.70;99.90;;;;;;5076023;28;20058;-66
2023/02/22 05:18:56;;;;;;;82.43;45.85;;;7.70;99.90;;;;;;5089243;28;20028;-66
2023/02/22 05:21:22;;;;;;;84.50;47.50;;;7.70;99.90;;;;;;5088351;28;20036;-66
2023/02/22 05:23:48;;;;;;;80.95;45.97;;;7.70;99.90;;;;;;5090328;28;20043;-67
2023/02/22 05:26:14;;;;;;;87.20;49.25;;;7.70;99.90;;;;;;5074619;28;20486;-66
2023/02/22 05:28:39;;;;;;;82.88;46.78;;;7.70;99.90;;;;;;5090729;28;20478;-66
2023/02/22 05:31:08;;;;;;;84.88;48.20;;;7.60;99.90;;;;;;5075181;28;20048;-66
2023/02/22 05:33:34;;;;;;;89.38;48.47;;;7.60;99.90;;;;;;5077269;28;20085;-67
2023/02/22 05:36:00;;;;;;;87.32;48.58;;;7.60;99.90;;;;;;5086253;28;20382;-66
2023/02/22 05:38:26;;;;;;;79.47;47.08;;;7.60;99.90;;;;;;5082004;28;20029;-67
2023/02/22 05:40:51;;;;;;;85.80;48.10;;;7.60;99.90;;;;;;5087323;28;20031;-67
2023/02/22 05:43:17;;;;;;;89.85;48.30;;;7.50;99.90;;;;;;5073789;28;20043;-66
2023/02/22 05:45:43;;;;;;;82.47;48.70;;;7.50;99.90;;;;;;5087190;28;20070;-66
2023/02/22 05:48:08;;;;;;;88.78;50.63;;;7.50;99.90;;;;;;5072882;28;20036;-66
2023/02/22 05:50:34;;;;;;;89.70;52.30;;;7.50;99.90;;;;;;5066934;28;20480;-65
2023/02/22 05:53:00;;;;;;;91.30;52.63;;;7.50;99.90;;;;;;5070072;28;20496;-65
2023/02/22 05:55:26;;;;;;;91.13;50.92;;;7.50;99.90;;;;;;5069517;28;20044;-65
2023/02/22 05:57:52;;;;;;;92.28;50.72;;;7.40;99.90;;;;;;5082489;28;20201;-65
2023/02/22 06:00:28;;;;;;;92.70;53.80;;;7.40;99.90;;;;;;5084544;28;20105;-65
2023/02/22 06:02:57;;;;;;;89.50;53.38;;;7.50;99.90;;;;;;5069206;28;20110;-65
2023/02/22 06:05:23;;;;;;;99.10;53.80;;;7.40;99.90;;;;;;5062504;28;20112;-65
2023/02/22 06:07:49;;;;;;;99.07;54.55;;;7.40;99.90;;;;;;5072472;28;20044;-65
2023/02/22 06:10:15;;;;;;;95.93;55.55;;;7.40;99.90;;;;;;5067669;28;20314;-66
2023/02/22 06:12:41;;;;;;;99.10;56.80;;;7.30;99.90;;;;;;5084339;28;20074;-65
2023/02/22 06:15:07;;;;;;;95.32;57.38;;;7.30;99.90;;;;;;5071134;28;20044;-65
2023/02/22 06:17:33;;;;;;;93.82;52.15;;;7.40;99.90;;;;;;5073275;28;20067;-65
2023/02/22 06:19:58;;;;;;;102.72;55.78;;;7.30;99.90;;;;;;5060797;28;20487;-66
2023/02/22 06:22:24;;;;;;;95.70;54.08;;;7.30;99.90;;;;;;5072859;28;20044;-66
2023/02/22 06:24:50;;;;;;;101.78;55.70;;;7.30;99.90;;;;;;5087775;28;20048;-66
2023/02/22 06:27:15;;;;;;;93.13;55.75;;;7.30;99.90;;;;;;5063846;28;20034;-66
2023/02/22 06:29:45;;;;;;;97.28;54.80;;;7.30;99.90;;;;;;5084308;28;20121;-67
2023/02/22 06:32:12;;;;;;;94.85;54.35;;;7.30;99.90;;;;;;5083300;28;20151;-66
2023/02/22 06:34:39;;;;;;;95.22;54.50;;;7.20;99.90;;;;;;5081240;28;20051;-68
2023/02/22 06:37:06;;;;;;;90.13;53.80;;;7.20;99.90;;;;;;5063790;28;20076;-67
2023/02/22 06:39:32;;;;;;;92.75;53.45;;;7.20;99.90;;;;;;5055752;28;20077;-68
2023/02/22 06:41:59;;;;;;;98.88;55.83;;;7.10;99.90;;;;;;5075025;28;20052;-68
2023/02/22 06:44:25;;;;;;;88.05;52.08;;;7.10;99.90;;;;;;5060530;28;20545;-68
2023/02/22 06:46:50;;;;;;;92.93;51.67;;;7.00;99.90;;;;;;5089627;28;20036;-69
2023/02/22 06:49:18;;;;;;;100.78;54.45;;;7.00;99.90;;;;;;5079435;28;20601;-68
2023/02/22 06:51:45;;;;;;;100.38;53.60;;;7.00;99.90;;;;;;5092190;28;20036;-68
2023/02/22 06:54:11;;;;;;;94.80;51.08;;;7.00;99.90;;;;;;5090378;28;20047;-68
2023/02/22 06:56:37;;;;;;;100.40;53.17;;;6.90;99.90;;;;;;5089204;28;20044;-68
2023/02/22 06:59:03;;;;;;;99.70;53.78;;;6.90;99.90;;;;;;5090432;28;20463;-68
2023/02/22 07:01:29;;;;;;;100.07;54.08;;;6.90;99.90;;;;;;5063839;28;20499;-68
2023/02/22 07:03:55;;;;;;;104.53;53.33;;;6.90;99.90;;;;;;5074854;28;20112;-68
2023/02/22 07:06:21;;;;;;;101.18;53.17;;;6.90;99.90;;;;;;5062360;28;20115;-68
2023/02/22 07:08:48;;;;;;;103.22;53.95;;;6.90;99.90;;;;;;5069275;28;20500;-68
2023/02/22 07:11:15;;;;;;;107.05;53.53;;;6.80;99.90;;;;;;5068200;28;20485;-68
2023/02/22 07:13:41;;;;;;;99.57;51.75;;;6.90;99.90;;;;;;5072733;28;20040;-68
2023/02/22 07:16:07;;;;;;;102.18;52.58;;;6.90;99.90;;;;;;5077795;28;20062;-68
2023/02/22 07:18:32;;;;;;;97.53;49.65;;;6.90;99.90;;;;;;5067744;28;20052;-68
2023/02/22 07:20:58;;;;;;;104.50;53.45;;;6.90;99.90;;;;;;5086069;28;20637;-68
2023/02/22 07:23:24;;;;;;;104.68;52.90;;;6.90;99.90;;;;;;5087847;28;20042;-68
2023/02/22 07:25:50;;;;;;;102.53;53.63;;;7.00;99.90;;;;;;5059972;28;20446;-68
2023/02/22 07:28:15;;;;;;;104.93;52.53;;;6.90;99.90;;;;;;5067469;28;20154;-69
2023/02/22 07:30:42;;;;;;;109.47;54.28;;;7.00;99.90;;;;;;5070757;28;20056;-69
2023/02/22 07:33:10;;;;;;;100.90;52.58;;;7.00;99.90;;;;;;5085562;28;20045;-69
2023/02/22 07:35:42;;;;;;;100.18;51.22;;;7.00;99.90;;;;;;5078277;28;20414;-69
2023/02/22 07:38:08;;;;;;;96.07;51.42;;;7.10;99.90;;;;;;5072250;28;20103;-69
2023/02/22 07:40:37;;;;;;;98.93;50.38;;;7.10;99.90;;;;;;5077988;28;20415;-69
2023/02/22 07:43:18;;;;;;;105.72;53.08;;;7.20;99.90;;;;;;5080457;28;20036;-69
2023/02/22 07:45:45;;;;;;;91.60;48.13;;;7.20;99.90;;;;;;5091583;28;20063;-68
2023/02/22 07:48:12;;;;;;;104.03;51.45;;;7.20;99.90;;;;;;5088393;28;20621;-68
2023/02/22 07:50:38;;;;;;;101.53;51.17;;;7.20;99.90;;;;;;5091499;28;20040;-68
2023/02/22 07:53:07;;;;;;;93.18;47.65;;;7.20;99.90;;;;;;5080477;28;20039;-68
2023/02/22 07:55:33;;;;;;;101.15;51.17;;;7.30;99.90;;;;;;5088047;28;20055;-68
2023/02/22 07:58:02;;;;;;;104.70;53.03;;;7.20;99.90;;;;;;5084224;28;20052;-68
2023/02/22 08:00:36;;;;;;;97.68;51.20;;;7.30;99.90;;;;;;5067838;28;20051;-68
2023/02/22 08:03:05;;;;;;;101.20;50.35;;;7.30;99.90;;;;;;5088145;28;20448;-69
2023/02/22 08:05:32;;;;;;;103.82;49.22;;;7.30;99.90;;;;;;5083169;28;20520;-69
2023/02/22 08:07:58;;;;;;;102.82;51.35;;;7.30;99.90;;;;;;5091217;28;20036;-69
2023/02/22 08:10:25;;;;;;;96.30;47.92;;;7.30;99.90;;;;;;5077013;28;20043;-69
2023/02/22 08:12:52;;;;;;;98.47;48.22;;;7.40;99.90;;;;;;5091635;28;20067;-69
2023/02/22 08:15:28;;;;;;;104.97;50.70;;;7.30;99.90;;;;;;5093555;28;20040;-69
2023/02/22 08:17:55;;;;;;;106.60;50.90;;;7.40;99.90;;;;;;5080487;28;20044;-69
2023/02/22 08:20:22;;;;;;;98.47;47.72;;;7.40;99.90;;;;;;5081016;28;20040;-69
2023/02/22 08:22:47;;;;;;;104.60;49.80;;;7.50;99.90;;;;;;5083405;28;20471;-69
2023/02/22 08:25:15;;;;;;;101.35;48.40;;;7.60;99.90;;;;;;5091063;28;20107;-69
2023/02/22 08:27:42;;;;;;;106.10;49.38;;;7.60;99.90;;;;;;5078329;28;20036;-69
2023/02/22 08:30:14;;;;;;;102.22;49.10;;;7.60;99.90;;;;;;5076790;28;20033;-69
2023/02/22 08:32:40;;;;;;;104.15;48.63;;;7.60;99.90;;;;;;5085385;28;20049;-69
2023/02/22 08:35:06;;;;;;;102.60;50.80;;;7.60;99.90;;;;;;5088521;28;20445;-69
2023/02/22 08:37:32;;;;;;;102.93;50.03;;;7.60;99.90;;;;;;5078152;28;20127;-69
2023/02/22 08:39:57;;;;;;;101.72;49.33;;;7.60;99.90;;;;;;5067046;28;20484;-69
2023/02/22 08:42:23;;;;;;;104.55;50.10;;;7.60;99.90;;;;;;5091232;28;20097;-69
2023/02/22 08:44:49;;;;;;;98.78;47.78;;;7.70;99.90;;;;;;5095029;28;20074;-69
2023/02/22 08:47:15;;;;;;;98.55;49.25;;;7.70;99.90;;;;;;5072747;28;20052;-69
2023/02/22 08:49:41;;;;;;;112.18;50.38;;;7.70;99.90;;;;;;5080466;28;20108;-69
2023/02/22 08:52:07;;;;;;;100.75;48.58;;;7.60;99.90;;;;;;5092119;28;20036;-69
2023/02/22 08:54:33;;;;;;;99.22;47.85;;;7.70;99.90;;;;;;5091282;28;20456;-69
2023/02/22 08:56:59;;;;;;;105.45;49.00;;;7.80;99.90;;;;;;5093579;28;20050;-69
2023/02/22 08:59:24;;;;;;;100.18;47.75;;;7.80;99.90;;;;;;5079338;28;20047;-69
2023/02/22 09:01:50;;;;;;;105.50;48.60;;;7.80;99.90;;;;;;5092518;28;20054;-69
2023/02/22 09:04:16;;;;;;;101.00;47.25;;;7.80;99.90;;;;;;5074013;28;20044;-69
2023/02/22 09:06:47;;;;;;;106.10;49.55;;;7.90;99.90;;;;;;5069692;28;20032;-69
2023/02/22 09:09:12;;;;;;;105.22;48.53;;;7.90;99.90;;;;;;5071342;28;20058;-69
2023/02/22 09:11:38;;;;;;;100.15;48.67;;;7.90;99.90;;;;;;5087827;28;20067;-69
2023/02/22 09:14:04;;;;;;;102.72;47.50;;;7.80;99.90;;;;;;5081104;28;20131;-69
2023/02/22 09:16:30;;;;;;;97.80;46.58;;;7.90;99.90;;;;;;5074819;28;20048;-69
2023/02/22 09:18:56;;;;;;;109.70;48.75;;;7.80;99.90;;;;;;5069481;28;20484;-68
2023/02/22 09:21:22;;;;;;;109.78;48.85;;;7.80;99.90;;;;;;5069875;28;20035;-69
2023/02/22 09:23:47;;;;;;;110.45;51.08;;;7.90;99.90;;;;;;5073594;28;20055;-69
2023/02/22 09:26:14;;;;;;;106.63;47.35;;;7.80;99.90;;;;;;5066818;28;20471;-69
2023/02/22 09:28:40;;;;;;;113.88;50.78;;;7.90;99.90;;;;;;5073413;28;20089;-69
2023/02/22 09:31:07;;;;;;;106.75;48.05;;;7.90;99.90;;;;;;5093522;28;20117;-69
2023/02/22 09:33:33;;;;;;;110.25;50.13;;;7.90;99.90;;;;;;5091517;28;20489;-69
2023/02/22 09:36:00;;;;;;;110.78;49.33;;;7.90;99.90;;;;;;5066446;28;20118;-69
2023/02/22 09:38:28;;;;;;;118.00;50.40;;;7.90;99.90;;;;;;5095323;28;20040;-69
2023/02/22 09:41:31;;;;;;;123.07;52.20;;;8.00;99.90;;;;;;5088865;28;20127;-69
2023/02/22 09:44:26;;;;;;;119.75;49.83;;;8.00;99.90;;;;;;5090536;28;20082;-69
2023/02/22 09:46:55;;;;;;;128.10;53.20;;;8.00;99.90;;;;;;4972952;28;20067;-69
2023/02/22 09:49:28;;;;;;;128.57;54.15;;;7.90;99.90;;;;;;5093059;28;20416;-69
2023/02/22 09:52:01;;;;;;;127.05;53.28;;;8.00;99.90;;;;;;5080143;28;20040;-69
2023/02/22 09:54:35;;;;;;;134.23;55.40;;;8.00;99.90;;;;;;5073901;28;20093;-69
2023/02/22 09:57:07;;;;;;;137.67;56.23;;;8.00;99.90;;;;;;5084990;28;20079;-69
2023/02/22 09:59:42;;;;;;;144.80;57.55;;;8.10;99.90;;;;;;5093226;28;20294;-69
2023/02/22 10:02:25;;;;;;;142.57;59.20;;;8.00;99.90;;;;;;5095405;28;20068;-69
2023/02/22 10:05:00;;;;;;;145.35;59.88;;;7.90;99.90;;;;;;5082355;28;20052;-69
2023/02/22 10:07:37;;;;;;;;;;;8.00;99.90;;;;;;5066444;28;20123;-69
2023/02/22 10:10:05;;;;;;;141.15;56.13;;;8.00;99.90;;;;;;5092209;28;19916;-69
2023/02/22 10:12:49;;;;;;;129.65;55.67;;;7.90;99.90;;;;;;5094426;28;20047;-69
2023/02/22 10:15:44;;;;;;;131.88;57.28;;;8.00;99.90;;;;;;5083104;28;20073;-69
2023/02/22 10:18:44;;;;;;;131.43;55.65;;;8.00;99.90;;;;;;5060458;28;20059;-69
2023/02/22 10:21:35;;;;;;;136.02;57.15;;;8.00;99.90;;;;;;5072494;28;20048;-69
2023/02/22 10:24:29;;;;;;;125.43;54.33;;;8.00;99.90;;;;;;5088479;28;20091;-69
2023/02/22 10:26:57;;;;;;;126.78;52.92;;;8.00;99.90;;;;;;5095055;28;20096;-69
2023/02/22 10:29:31;;;;;;;136.88;54.22;;;8.00;99.90;;;;;;5093752;28;20036;-68
2023/02/22 10:32:01;;;;;;;131.18;55.10;;;8.10;99.90;;;;;;5092443;28;20063;-69
2023/02/22 10:34:32;;;;;;;129.50;55.92;;;8.10;99.90;;;;;;5064576;28;20048;-68
2023/02/22 10:37:31;;;;;;;135.93;55.45;;;8.20;99.90;;;;;;5085250;28;20041;-69
2023/02/22 10:40:10;;;;;;;142.55;57.08;;;8.20;99.90;;;;;;5077219;28;20032;-69
2023/02/22 10:42:36;;;;;;;147.15;60.38;;;8.20;99.90;;;;;;5079746;28;20185;-69
2023/02/22 10:45:01;;;;;;;155.05;60.90;;;8.30;99.90;;;;;;5077427;28;20048;-69
2023/02/22 10:47:28;;;;;;;155.05;61.95;;;8.30;99.90;;;;;;5063339;28;20404;-69
2023/02/22 10:49:59;;;;;;;148.02;62.17;;;8.30;99.90;;;;;;5082958;28;20476;-69
2023/02/22 10:52:32;;;;;;;158.52;62.47;;;8.30;99.90;;;;;;5072445;28;20035;-69
2023/02/22 10:55:00;;;;;;;156.02;62.85;;;8.30;99.90;;;;;;5092292;28;20115;-69
2023/02/22 10:57:35;;;;;;;161.40;63.58;;;8.30;99.90;;;;;;5093398;28;20042;-69
2023/02/22 11:00:19;;;;;;;160.48;64.47;;;8.30;99.90;;;;;;5089354;28;20044;-69
2023/02/22 11:02:52;;;;;;;161.38;64.32;;;8.40;99.90;;;;;;5083339;28;20044;-69
2023/02/22 11:05:29;;;;;;;174.75;68.22;;;8.40;99.90;;;;;;5065502;28;20780;-69
2023/02/22 11:08:14;;;;;;;174.30;67.38;;;8.40;99.90;;;;;;5093120;28;20066;-69
2023/02/22 11:10:42;;;;;;;167.68;65.25;;;8.40;99.90;;;;;;5074996;28;20586;-69
2023/02/22 11:13:24;;;;;;;165.60;64.88;;;8.50;99.90;;;;;;5079687;28;20036;-69
2023/02/22 11:15:51;;;;;;;160.77;64.85;;;8.60;99.90;;;;;;5094024;28;20036;-69
2023/02/22 11:18:37;;;;;;;161.57;66.07;;;8.60;99.90;;;;;;5090415;28;20063;-69
2023/02/22 11:21:06;;;;;;;161.52;64.32;;;8.70;99.90;;;;;;5078015;28;20126;-69
2023/02/22 11:23:41;;;;;;;159.07;64.95;;;8.70;99.90;;;;;;5082637;28;20052;-69
2023/02/22 11:26:08;;;;;;;;;;;8.70;99.90;;;;;;5075546;28;20488;-69
2023/02/22 11:28:35;;;;;;;159.75;61.70;;;8.90;99.90;;;;;;5077321;28;19916;-69
2023/02/22 11:31:16;;;;;;;152.00;61.28;;;8.90;99.90;;;;;;5084952;28;20075;-69
2023/02/22 11:33:58;;;;;;;147.10;59.70;;;9.00;99.90;;;;;;5068199;28;20070;-69
2023/02/22 11:36:41;;;;;;;145.73;57.92;;;9.10;99.90;;;;;;5072872;28;20078;-69
2023/02/22 11:39:34;;;;;;;131.63;54.67;;;9.20;99.90;;;;;;5086035;28;20109;-69
2023/02/22 11:42:22;;;;;;;134.30;55.00;;;9.20;99.90;;;;;;5087926;28;20051;-69
2023/02/22 11:44:55;;;;;;;138.88;56.25;;;9.20;99.90;;;;;;5072932;28;20068;-69
2023/02/22 11:47:23;;;;;;;134.65;54.38;;;9.20;99.90;;;;;;5091255;28;20034;-69
2023/02/22 11:49:48;;;;;;;137.52;54.08;;;9.20;99.90;;;;;;5089411;28;20032;-69
2023/02/22 11:52:22;;;;;;;129.88;52.42;;;9.20;99.90;;;;;;5083713;28;20036;-69
2023/02/22 11:54:53;;;;;;;132.95;53.65;;;9.20;99.90;;;;;;5087855;28;20052;-69
2023/02/22 11:57:51;;;;;;;122.10;51.83;;;9.10;99.90;;;;;;5074713;28;20159;-69
2023/02/22 12:00:47;;;;;;;132.43;53.83;;;9.20;99.90;;;;;;5084119;28;20051;-69
2023/02/22 12:03:27;;;;;;;122.45;52.83;;;9.20;99.90;;;;;;5067116;28;20044;-69
2023/02/22 12:06:07;;;;;;;115.80;48.72;;;9.20;99.90;;;;;;5083314;28;20399;-70
2023/02/22 12:08:41;;;;;;;111.35;48.95;;;9.20;99.90;;;;;;5079941;28;20075;-69
2023/02/22 12:11:39;;;;;;;95.20;42.42;;;9.20;99.90;;;;;;5084149;28;20032;-69
2023/02/22 12:14:30;;;;;;;89.30;42.10;;;9.40;99.90;;;;;;5087609;28;20040;-69
2023/02/22 12:17:23;;;;;;;82.70;40.20;;;9.50;99.90;;;;;;5075936;28;20034;-69
2023/02/22 12:20:05;;;;;;;75.68;38.33;;;9.60;99.90;;;;;;5089720;28;20071;-69
2023/02/22 12:22:35;;;;;;;84.10;40.85;;;9.70;99.90;;;;;;5091927;28;20083;-69
2023/02/22 12:25:15;;;;;;;78.93;38.50;;;9.80;99.90;;;;;;5089576;28;20075;-69
2023/02/22 12:28:19;;;;;;;76.28;38.13;;;9.90;99.90;;;;;;5093865;28;20046;-68
2023/02/22 12:31:13;;;;;;;76.95;37.20;;;9.90;99.90;;;;;;5046780;28;20139;-67
2023/02/22 12:34:11;;;;;;;75.45;39.17;;;9.90;99.90;;;;;;5047080;28;20051;-68
2023/02/22 12:36:47;;;;;;;75.80;38.58;;;9.90;99.90;;;;;;5088287;28;20040;-68
2023/02/22 12:39:39;;;;;;;72.95;37.15;;;10.00;99.90;;;;;;5079961;28;20036;-68
2023/02/22 12:42:21;;;;;;;65.63;35.50;;;10.10;99.90;;;;;;5047513;28;20123;-67
2023/02/22 12:44:54;;;;;;;65.07;36.08;;;10.20;99.90;;;;;;5075876;28;20158;-68
2023/02/22 12:47:28;;;;;;;69.95;36.92;;;10.30;99.90;;;;;;5084231;28;20036;-67
2023/02/22 12:50:06;;;;;;;65.53;34.87;;;10.40;99.90;;;;;;5077553;28;20039;-67
2023/02/22 12:53:13;;;;;;;72.85;37.92;;;10.40;99.90;;;;;;5086754;28;20358;-67
2023/02/22 12:56:34;;;;;;;72.75;37.88;;;10.50;99.90;;;;;;5086637;28;20092;-67